createdAt,value
2022-12-24T00:00:22.793Z,-0.96
2022-12-24T00:01:22.655Z,-1
2022-12-24T00:02:22.859Z,-0.99
2022-12-24T00:03:22.893Z,-0.97
2022-12-24T00:04:22.842Z,-1
2022-12-24T00:05:22.755Z,-0.99
2022-12-24T00:06:24.043Z,-1.02
2022-12-24T00:07:22.760Z,-0.96
2022-12-24T00:08:23.069Z,-0.97
2022-12-24T00:09:22.899Z,-1.01
2022-12-24T00:10:22.862Z,-1.03
2022-12-24T00:11:22.791Z,-1.04
2022-12-24T00:12:23.394Z,-1.01
2022-12-24T00:13:22.865Z,-1.01
2022-12-24T00:14:22.897Z,-1.05
2022-12-24T00:15:22.862Z,-1.08
2022-12-24T00:16:23.029Z,-1.05
2022-12-24T00:17:22.930Z,-1.08
2022-12-24T00:18:22.972Z,-1.09
2022-12-24T00:19:23.093Z,-1.1
2022-12-24T00:20:23.054Z,-1.1
2022-12-24T00:21:22.960Z,-1.09
2022-12-24T00:22:23.017Z,-1.1
2022-12-24T00:23:23.083Z,-1.09
2022-12-24T00:24:23.041Z,-1.11
2022-12-24T00:25:23.021Z,-1.13
2022-12-24T00:26:23.082Z,-1.12
2022-12-24T00:27:23.045Z,-1.1
2022-12-24T00:28:23.063Z,-1.09
2022-12-24T00:29:23.098Z,-1.12
2022-12-24T00:30:23.138Z,-1.15
2022-12-24T00:31:23.679Z,-1.12
2022-12-24T00:32:23.141Z,-1.12
2022-12-24T00:33:24.761Z,-1.15
2022-12-24T00:34:23.689Z,-1.13
2022-12-24T00:35:23.631Z,-1.15
2022-12-24T00:36:23.336Z,-1.13
2022-12-24T00:37:23.211Z,-1.1
2022-12-24T00:38:23.250Z,-1.12
2022-12-24T00:39:23.275Z,-1.1
2022-12-24T00:40:23.261Z,-1.13
2022-12-24T00:41:23.268Z,-1.12
2022-12-24T00:42:23.282Z,-1.13
2022-12-24T00:43:23.330Z,-1.13
2022-12-24T00:44:23.359Z,-1.15
2022-12-24T00:45:23.420Z,-1.14
2022-12-24T00:46:24.014Z,-1.15
2022-12-24T00:47:23.407Z,-1.16
2022-12-24T00:48:23.434Z,-1.16
2022-12-24T00:49:23.420Z,-1.21
2022-12-24T00:50:23.620Z,-1.17
2022-12-24T00:51:24.137Z,-1.2
2022-12-24T00:52:23.485Z,-1.17
2022-12-24T00:53:23.475Z,-1.17
2022-12-24T00:54:23.517Z,-1.18
2022-12-24T00:55:23.540Z,-1.21
2022-12-24T00:56:23.959Z,-1.2
2022-12-24T00:57:23.549Z,-1.21
2022-12-24T00:58:23.572Z,-1.21
2022-12-24T00:59:23.564Z,-1.22
2022-12-24T01:00:23.586Z,-1.21
2022-12-24T01:01:24.495Z,-1.23
2022-12-24T01:02:23.791Z,-1.23
2022-12-24T01:03:23.719Z,-1.23
2022-12-24T01:04:23.687Z,-1.22
2022-12-24T01:05:23.674Z,-1.25
2022-12-24T01:06:23.678Z,-1.25
2022-12-24T01:07:23.732Z,-1.22
2022-12-24T01:08:23.730Z,-1.23
2022-12-24T01:09:23.757Z,-1.21
2022-12-24T01:10:23.926Z,-1.21
2022-12-24T01:11:23.770Z,-1.21
2022-12-24T01:12:25.852Z,-1.23
2022-12-24T01:13:24.040Z,-1.23
2022-12-24T01:14:24.034Z,-1.25
2022-12-24T01:15:23.818Z,-1.24
2022-12-24T01:16:23.919Z,-1.24
2022-12-24T01:17:23.882Z,-1.22
2022-12-24T01:18:24.378Z,-1.22
2022-12-24T01:19:24.038Z,-1.23
2022-12-24T01:20:23.929Z,-1.22
2022-12-24T01:21:23.974Z,-1.23
2022-12-24T01:22:23.930Z,-1.23
2022-12-24T01:23:23.978Z,-1.24
2022-12-24T01:24:24.131Z,-1.25
2022-12-24T01:25:23.999Z,-1.25
2022-12-24T01:26:24.026Z,-1.24
2022-12-24T01:27:24.053Z,-1.26
2022-12-24T01:28:24.041Z,-1.26
2022-12-24T01:29:24.088Z,-1.23
2022-12-24T01:30:24.111Z,-1.25
2022-12-24T01:31:24.283Z,-1.24
2022-12-24T01:32:24.128Z,-1.21
2022-12-24T01:33:24.110Z,-1.21
2022-12-24T01:34:24.168Z,-1.22
2022-12-24T01:35:24.201Z,-1.21
2022-12-24T01:36:24.199Z,-1.25
2022-12-24T01:37:24.183Z,-1.26
2022-12-24T01:38:24.203Z,-1.26
2022-12-24T01:39:24.384Z,-1.27
2022-12-24T01:40:25.976Z,-1.26
2022-12-24T01:41:25.002Z,-1.28
2022-12-24T01:42:24.724Z,-1.28
2022-12-24T01:43:25.243Z,-1.27
2022-12-24T01:46:31.603Z,-1.27
2022-12-24T01:47:30.302Z,-1.3
2022-12-24T01:49:33.256Z,-1.32
2022-12-24T01:50:33.047Z,-1.33
2022-12-24T01:51:35.216Z,-1.33
2022-12-24T01:52:34.717Z,-1.36
2022-12-24T01:53:34.780Z,-1.33
2022-12-24T01:54:36.143Z,-1.32
2022-12-24T01:55:32.917Z,-1.34
2022-12-24T01:56:35.558Z,-1.34
2022-12-24T01:58:36.906Z,-1.33
2022-12-24T01:59:37.416Z,-1.35
2022-12-24T02:00:36.069Z,-1.37
2022-12-24T02:01:36.065Z,-1.37
2022-12-24T02:02:36.916Z,-1.37
2022-12-24T02:03:36.038Z,-1.36
2022-12-24T02:06:42.533Z,-1.43
2022-12-24T02:07:42.918Z,-1.43
2022-12-24T02:08:42.538Z,-1.43
2022-12-24T02:09:42.431Z,-1.44
2022-12-24T02:10:42.305Z,-1.44
2022-12-24T02:11:42.800Z,-1.44
2022-12-24T02:12:43.640Z,-1.42
2022-12-24T02:13:44.577Z,-1.43
2022-12-24T02:14:42.425Z,-1.43
2022-12-24T02:21:06.886Z,-1.47
2022-12-24T02:22:05.785Z,-1.48
2022-12-24T02:23:12.608Z,-1.49
2022-12-24T02:32:34.247Z,-1.63
2022-12-24T02:34:38.658Z,-1.64
2022-12-24T02:36:42.572Z,-1.66
2022-12-24T02:38:48.343Z,-1.66
2022-12-24T02:39:52.224Z,-1.66
2022-12-24T02:40:55.158Z,-1.68
2022-12-24T02:41:53.700Z,-1.71
2022-12-24T02:42:54.972Z,-1.73
2022-12-24T02:43:53.181Z,-1.73
2022-12-24T02:45:58.992Z,-1.75
2022-12-24T02:46:57.016Z,-1.75
2022-12-24T02:47:56.321Z,-1.77
2022-12-24T02:48:56.526Z,-1.78
2022-12-24T02:49:55.887Z,-1.77
2022-12-24T02:51:57.996Z,-1.76
2022-12-24T02:52:58.126Z,-1.76
2022-12-24T02:53:57.996Z,-1.78
2022-12-24T02:55:00.708Z,-1.81
2022-12-24T03:07:32.023Z,-1.95
2022-12-24T03:09:39.215Z,-1.94
2022-12-24T03:10:46.484Z,-1.98
2022-12-24T03:11:40.757Z,-1.95
2022-12-24T03:12:41.590Z,-1.98
2022-12-24T03:13:38.540Z,-2.01
2022-12-24T03:14:40.233Z,-2.03
2022-12-24T03:15:38.804Z,-2.01
2022-12-24T03:16:38.342Z,-2
2022-12-24T03:17:39.598Z,-2.05
2022-12-24T03:18:40.514Z,-2.04
2022-12-24T03:19:43.109Z,-2.07
2022-12-24T03:20:48.616Z,-2.06
2022-12-24T03:21:41.393Z,-2.08
2022-12-24T03:22:40.620Z,-2.1
2022-12-24T03:23:40.639Z,-2.1
2022-12-24T03:24:40.327Z,-2.14
2022-12-24T03:25:42.248Z,-2.12
2022-12-24T03:26:40.739Z,-2.16
2022-12-24T03:27:40.680Z,-2.14
2022-12-24T03:28:41.093Z,-2.16
2022-12-24T03:29:40.886Z,-2.18
2022-12-24T03:30:41.555Z,-2.18
2022-12-24T03:31:41.798Z,-2.19
2022-12-24T03:32:40.530Z,-2.21
2022-12-24T03:33:40.500Z,-2.25
2022-12-24T03:34:40.457Z,-2.21
2022-12-24T03:35:40.517Z,-2.27
2022-12-24T03:36:41.039Z,-2.29
2022-12-24T03:37:40.665Z,-2.29
2022-12-24T03:38:40.755Z,-2.28
2022-12-24T03:39:40.611Z,-2.29
2022-12-24T03:40:40.517Z,-2.28
2022-12-24T03:41:40.527Z,-2.32
2022-12-24T03:42:40.597Z,-2.37
2022-12-24T03:43:40.635Z,-2.42
2022-12-24T03:44:40.675Z,-2.4
2022-12-24T03:45:42.019Z,-2.35
2022-12-24T03:46:40.762Z,-2.38
2022-12-24T03:47:40.649Z,-2.45
2022-12-24T03:48:40.590Z,-2.44
2022-12-24T03:49:40.654Z,-2.48
2022-12-24T03:50:40.712Z,-2.48
2022-12-24T03:51:40.631Z,-2.49
2022-12-24T03:52:40.696Z,-2.54
2022-12-24T03:53:40.833Z,-2.55
2022-12-24T03:54:40.718Z,-2.51
2022-12-24T03:55:40.714Z,-2.51
2022-12-24T03:56:40.778Z,-2.54
2022-12-24T03:57:40.780Z,-2.56
2022-12-24T03:58:40.804Z,-2.52
2022-12-24T03:59:40.755Z,-2.55
2022-12-24T04:00:40.895Z,-2.55
2022-12-24T04:01:41.016Z,-2.55
2022-12-24T04:02:41.152Z,-2.55
2022-12-24T04:03:40.847Z,-2.61
2022-12-24T04:04:40.787Z,-2.62
2022-12-24T04:05:40.869Z,-2.64
2022-12-24T04:06:40.860Z,-2.65
2022-12-24T04:07:40.947Z,-2.71
2022-12-24T04:08:41.083Z,-2.67
2022-12-24T04:09:40.843Z,-2.66
2022-12-24T04:10:40.893Z,-2.78
2022-12-24T04:11:40.978Z,-2.72
2022-12-24T04:12:41.019Z,-2.7
2022-12-24T04:13:41.130Z,-2.73
2022-12-24T04:14:40.989Z,-2.81
2022-12-24T04:15:40.950Z,-2.77
2022-12-24T04:16:41.026Z,-2.78
2022-12-24T04:17:40.976Z,-2.84
2022-12-24T04:18:41.422Z,-2.86
2022-12-24T04:19:40.979Z,-2.83
2022-12-24T04:20:41.019Z,-2.86
2022-12-24T04:21:41.057Z,-2.91
2022-12-24T04:22:41.159Z,-2.91
2022-12-24T04:23:41.890Z,-2.91
2022-12-24T04:24:41.100Z,-2.93
2022-12-24T04:25:41.111Z,-3
2022-12-24T04:26:41.211Z,-3.08
2022-12-24T04:27:41.132Z,-3.02
2022-12-24T04:28:41.748Z,-3.05
2022-12-24T04:29:41.128Z,-3.03
2022-12-24T04:30:41.722Z,-3.02
2022-12-24T04:31:41.243Z,-3.04
2022-12-24T04:32:41.181Z,-3.13
2022-12-24T04:33:41.316Z,-3.16
2022-12-24T04:34:41.220Z,-3.09
2022-12-24T04:35:41.887Z,-3.18
2022-12-24T04:36:41.775Z,-3.09
2022-12-24T04:37:41.757Z,-3.11
2022-12-24T04:38:41.718Z,-3.17
2022-12-24T04:39:41.798Z,-3.22
2022-12-24T04:40:41.787Z,-3.21
2022-12-24T04:41:41.822Z,-3.23
2022-12-24T04:42:41.837Z,-3.23
2022-12-24T04:43:41.823Z,-3.26
2022-12-24T04:44:41.859Z,-3.26
2022-12-24T04:45:41.928Z,-3.3
2022-12-24T04:46:41.840Z,-3.29
2022-12-24T04:47:41.877Z,-3.34
2022-12-24T04:48:41.900Z,-3.38
2022-12-24T04:49:41.945Z,-3.35
2022-12-24T04:50:41.972Z,-3.29
2022-12-24T04:51:41.923Z,-3.32
2022-12-24T04:52:41.946Z,-3.27
2022-12-24T04:53:42.424Z,-3.33
2022-12-24T04:54:42.021Z,-3.18
2022-12-24T04:55:45.367Z,-3.15
2022-12-24T04:56:42.082Z,-3.27
2022-12-24T04:57:42.016Z,-3.37
2022-12-24T04:58:42.235Z,-3.25
2022-12-24T04:59:47.559Z,-3.36
2022-12-24T05:00:44.199Z,-3.42
2022-12-24T05:01:44.322Z,-3.37
2022-12-24T05:02:44.367Z,-3.41
2022-12-24T05:03:44.273Z,-3.48
2022-12-24T05:04:44.261Z,-3.45
2022-12-24T05:05:44.368Z,-3.43
2022-12-24T05:06:44.305Z,-3.49
2022-12-24T05:07:44.285Z,-3.55
2022-12-24T05:08:44.334Z,-3.58
2022-12-24T05:09:44.378Z,-3.5
2022-12-24T05:10:44.864Z,-3.47
2022-12-24T05:11:44.558Z,-3.56
2022-12-24T05:12:44.387Z,-3.48
2022-12-24T05:13:47.495Z,-3.52
2022-12-24T05:14:44.462Z,-3.53
2022-12-24T05:15:44.611Z,-3.53
2022-12-24T05:16:44.607Z,-3.57
2022-12-24T05:17:44.584Z,-3.55
2022-12-24T05:18:44.838Z,-3.56
2022-12-24T05:19:44.562Z,-3.54
2022-12-24T05:20:44.583Z,-3.49
2022-12-24T05:21:44.577Z,-3.57
2022-12-24T05:22:44.605Z,-3.66
2022-12-24T05:23:45.044Z,-3.67
2022-12-24T05:24:44.749Z,-3.62
2022-12-24T05:25:44.645Z,-3.52
2022-12-24T05:26:48.195Z,-3.55
2022-12-24T05:27:50.934Z,-3.57
2022-12-24T05:28:49.062Z,-3.51
2022-12-24T05:29:48.125Z,-3.57
2022-12-24T05:30:48.872Z,-3.51
2022-12-24T05:31:48.713Z,-3.54
2022-12-24T05:32:48.630Z,-3.54
2022-12-24T05:33:48.646Z,-3.41
2022-12-24T05:34:48.673Z,-3.4
2022-12-24T05:35:50.893Z,-3.48
2022-12-24T05:36:48.732Z,-3.48
2022-12-24T05:37:48.699Z,-3.38
2022-12-24T05:38:49.052Z,-3.49
2022-12-24T05:39:48.753Z,-3.43
2022-12-24T05:40:48.778Z,-3.5
2022-12-24T05:41:48.819Z,-3.53
2022-12-24T05:42:50.077Z,-3.59
2022-12-24T05:43:48.968Z,-3.46
2022-12-24T05:44:48.810Z,-3.52
2022-12-24T05:45:48.909Z,-3.55
2022-12-24T05:46:48.991Z,-3.5
2022-12-24T05:47:48.920Z,-3.51
2022-12-24T05:48:49.320Z,-3.47
2022-12-24T05:49:48.840Z,-3.49
2022-12-24T05:50:48.839Z,-3.47
2022-12-24T05:51:48.856Z,-3.35
2022-12-24T05:52:48.919Z,-3.37
2022-12-24T05:53:50.148Z,-3.47
2022-12-24T05:54:48.930Z,-3.47
2022-12-24T05:55:49.122Z,-3.47
2022-12-24T05:56:49.049Z,-3.54
2022-12-24T05:57:49.128Z,-3.54
2022-12-24T05:58:48.971Z,-3.62
2022-12-24T05:59:49.038Z,-3.57
2022-12-24T06:00:49.021Z,-3.65
2022-12-24T06:01:49.103Z,-3.58
2022-12-24T06:02:49.221Z,-3.59
2022-12-24T06:03:49.105Z,-3.57
2022-12-24T06:04:49.095Z,-3.62
2022-12-24T06:05:49.034Z,-3.65
2022-12-24T06:06:49.053Z,-3.59
2022-12-24T06:07:49.123Z,-3.74
2022-12-24T06:08:49.774Z,-3.61
2022-12-24T06:09:49.130Z,-3.7
2022-12-24T06:10:53.981Z,-3.66
2022-12-24T06:11:50.723Z,-3.66
2022-12-24T06:12:50.761Z,-3.76
2022-12-24T06:13:51.948Z,-3.77
2022-12-24T06:14:50.714Z,-3.75
2022-12-24T06:15:51.286Z,-3.86
2022-12-24T06:16:51.763Z,-3.93
2022-12-24T06:17:50.815Z,-3.92
2022-12-24T06:18:51.244Z,-3.88
2022-12-24T06:19:50.823Z,-3.94
2022-12-24T06:20:54.379Z,-3.97
2022-12-24T06:21:51.078Z,-3.89
2022-12-24T06:22:51.069Z,-3.97
2022-12-24T06:23:51.137Z,-4
2022-12-24T06:24:51.107Z,-4
2022-12-24T06:25:51.606Z,-4.05
2022-12-24T06:26:51.067Z,-3.99
2022-12-24T06:27:51.423Z,-4.02
2022-12-24T06:28:51.544Z,-4.14
2022-12-24T06:29:51.115Z,-4.07
2022-12-24T06:30:53.654Z,-4.08
2022-12-24T06:31:54.009Z,-4.13
2022-12-24T06:32:54.069Z,-4.2
2022-12-24T06:33:53.945Z,-4.21
2022-12-24T06:34:53.906Z,-4.16
2022-12-24T06:35:54.028Z,-4.14
2022-12-24T06:36:53.994Z,-4.22
2022-12-24T06:37:53.989Z,-4.34
2022-12-24T06:38:54.598Z,-4.33
2022-12-24T06:39:54.030Z,-4.34
2022-12-24T06:40:54.042Z,-4.33
2022-12-24T06:41:54.035Z,-4.34
2022-12-24T06:42:54.221Z,-4.35
2022-12-24T06:43:54.193Z,-4.41
2022-12-24T06:44:54.066Z,-4.35
2022-12-24T06:45:54.057Z,-4.42
2022-12-24T06:46:54.088Z,-4.41
2022-12-24T06:47:54.124Z,-4.42
2022-12-24T06:48:54.095Z,-4.39
2022-12-24T06:49:54.102Z,-4.33
2022-12-24T06:50:54.193Z,-4.34
2022-12-24T06:51:54.124Z,-4.34
2022-12-24T06:52:54.282Z,-4.29
2022-12-24T06:53:54.206Z,-4.27
2022-12-24T06:54:54.194Z,-4.27
2022-12-24T06:56:00.690Z,-4.3
2022-12-24T06:56:58.089Z,-4.24
2022-12-24T06:57:57.781Z,-4.25
2022-12-24T06:59:03.144Z,-4.29
2022-12-24T07:00:01.870Z,-4.33
2022-12-24T07:01:02.520Z,-4.33
2022-12-24T07:02:02.109Z,-4.24
2022-12-24T07:03:01.922Z,-4.26
2022-12-24T07:04:01.959Z,-4.38
2022-12-24T07:05:01.942Z,-4.36
2022-12-24T07:06:01.927Z,-4.38
2022-12-24T07:07:01.952Z,-4.37
2022-12-24T07:08:02.002Z,-4.27
2022-12-24T07:09:02.061Z,-4.35
2022-12-24T07:10:02.070Z,-4.33
2022-12-24T07:11:02.046Z,-4.32
2022-12-24T07:12:02.091Z,-4.33
2022-12-24T07:13:02.120Z,-4.29
2022-12-24T07:14:02.056Z,-4.27
2022-12-24T07:15:02.065Z,-4.25
2022-12-24T07:16:03.175Z,-4.26
2022-12-24T07:17:02.170Z,-4.33
2022-12-24T07:18:02.256Z,-4.26
2022-12-24T07:19:02.187Z,-4.37
2022-12-24T07:20:02.136Z,-4.39
2022-12-24T07:21:03.433Z,-4.34
2022-12-24T07:22:02.136Z,-4.35
2022-12-24T07:23:02.178Z,-4.45
2022-12-24T07:24:02.165Z,-4.4
2022-12-24T07:25:02.195Z,-4.49
2022-12-24T07:26:02.659Z,-4.54
2022-12-24T07:27:02.186Z,-4.5
2022-12-24T07:28:02.266Z,-4.5
2022-12-24T07:29:07.278Z,-4.44
2022-12-24T07:30:04.500Z,-4.58
2022-12-24T07:31:04.137Z,-4.49
2022-12-24T07:32:04.442Z,-4.47
2022-12-24T07:33:04.009Z,-4.41
2022-12-24T07:34:04.001Z,-4.39
2022-12-24T07:35:04.249Z,-4.56
2022-12-24T07:36:08.180Z,-4.52
2022-12-24T07:37:05.084Z,-4.39
2022-12-24T07:38:04.822Z,-4.46
2022-12-24T07:39:04.910Z,-4.41
2022-12-24T07:40:05.467Z,-4.39
2022-12-24T07:41:05.105Z,-4.34
2022-12-24T07:42:05.007Z,-4.41
2022-12-24T07:43:04.969Z,-4.37
2022-12-24T07:44:05.179Z,-4.42
2022-12-24T07:45:05.437Z,-4.41
2022-12-24T07:46:05.280Z,-4.44
2022-12-24T07:47:05.145Z,-4.39
2022-12-24T07:48:05.415Z,-4.41
2022-12-24T07:49:05.278Z,-4.48
2022-12-24T07:50:05.800Z,-4.46
2022-12-24T07:51:05.331Z,-4.33
2022-12-24T07:52:05.208Z,-4.3
2022-12-24T07:53:05.069Z,-4.36
2022-12-24T07:54:05.321Z,-4.28
2022-12-24T07:55:05.517Z,-4.34
2022-12-24T07:56:12.278Z,-4.25
2022-12-24T07:57:09.474Z,-4.28
2022-12-24T07:58:10.056Z,-4.3
2022-12-24T07:59:12.270Z,-4.25
2022-12-24T08:00:10.058Z,-4.24
2022-12-24T08:01:09.741Z,-4.29
2022-12-24T08:02:17.596Z,-4.34
2022-12-24T08:03:16.413Z,-4.33
2022-12-24T08:04:13.563Z,-4.33
2022-12-24T08:05:13.323Z,-4.34
2022-12-24T08:06:13.313Z,-4.39
2022-12-24T08:07:13.348Z,-4.37
2022-12-24T08:08:13.491Z,-4.39
2022-12-24T08:09:13.443Z,-4.42
2022-12-24T08:10:13.331Z,-4.41
2022-12-24T08:11:13.783Z,-4.38
2022-12-24T08:12:13.443Z,-4.41
2022-12-24T08:13:13.870Z,-4.4
2022-12-24T08:14:14.249Z,-4.33
2022-12-24T08:15:13.836Z,-4.22
2022-12-24T08:16:13.458Z,-4.26
2022-12-24T08:17:13.471Z,-4.33
2022-12-24T08:18:13.477Z,-4.34
2022-12-24T08:19:13.522Z,-4.27
2022-12-24T08:20:13.524Z,-4.27
2022-12-24T08:21:13.489Z,-4.24
2022-12-24T08:22:13.521Z,-4.23
2022-12-24T08:23:13.578Z,-4.23
2022-12-24T08:24:13.550Z,-4.12
2022-12-24T08:25:13.582Z,-4.22
2022-12-24T08:26:13.597Z,-4.26
2022-12-24T08:27:13.578Z,-4.17
2022-12-24T08:28:14.824Z,-4.21
2022-12-24T08:29:13.612Z,-4.15
2022-12-24T08:30:20.642Z,-4.15
2022-12-24T08:31:18.032Z,-4.12
2022-12-24T08:32:18.259Z,-4.11
2022-12-24T08:33:18.164Z,-4.24
2022-12-24T08:34:17.884Z,-4.19
2022-12-24T08:35:17.925Z,-4.15
2022-12-24T08:36:17.941Z,-4.1
2022-12-24T08:37:17.953Z,-4.05
2022-12-24T08:38:17.993Z,-4.07
2022-12-24T08:39:17.960Z,-4.1
2022-12-24T08:40:18.128Z,-3.97
2022-12-24T08:41:17.983Z,-3.96
2022-12-24T08:42:18.127Z,-3.99
2022-12-24T08:43:18.551Z,-4.08
2022-12-24T08:44:18.125Z,-4.02
2022-12-24T08:45:18.455Z,-4.1
2022-12-24T08:46:18.168Z,-4.04
2022-12-24T08:47:18.458Z,-3.96
2022-12-24T08:48:18.112Z,-3.96
2022-12-24T08:49:18.339Z,-3.89
2022-12-24T08:50:18.291Z,-3.85
2022-12-24T08:51:18.309Z,-3.88
2022-12-24T08:52:18.196Z,-3.95
2022-12-24T08:53:18.172Z,-3.93
2022-12-24T08:54:18.180Z,-3.97
2022-12-24T08:55:18.265Z,-3.87
2022-12-24T08:56:18.275Z,-3.94
2022-12-24T08:57:18.238Z,-3.89
2022-12-24T08:58:18.287Z,-3.89
2022-12-24T08:59:18.288Z,-3.85
2022-12-24T09:00:18.661Z,-3.92
2022-12-24T09:01:19.905Z,-3.83
2022-12-24T09:02:18.940Z,-3.89
2022-12-24T09:03:23.621Z,-3.76
2022-12-24T09:04:18.836Z,-3.75
2022-12-24T09:05:19.006Z,-3.72
2022-12-24T09:06:18.873Z,-3.74
2022-12-24T09:07:18.996Z,-3.72
2022-12-24T09:08:19.635Z,-3.72
2022-12-24T09:09:18.939Z,-3.71
2022-12-24T09:10:19.250Z,-3.75
2022-12-24T09:11:19.346Z,-3.71
2022-12-24T09:12:19.084Z,-3.75
2022-12-24T09:13:19.007Z,-3.71
2022-12-24T09:14:19.040Z,-3.71
2022-12-24T09:15:19.121Z,-3.69
2022-12-24T09:16:19.048Z,-3.67
2022-12-24T09:17:19.087Z,-3.61
2022-12-24T09:18:19.089Z,-3.6
2022-12-24T09:19:19.065Z,-3.57
2022-12-24T09:20:19.183Z,-3.58
2022-12-24T09:21:19.512Z,-3.58
2022-12-24T09:22:19.232Z,-3.55
2022-12-24T09:23:19.138Z,-3.62
2022-12-24T09:24:19.161Z,-3.58
2022-12-24T09:25:19.192Z,-3.57
2022-12-24T09:26:20.597Z,-3.62
2022-12-24T09:27:19.187Z,-3.55
2022-12-24T09:28:19.273Z,-3.58
2022-12-24T09:29:19.196Z,-3.57
2022-12-24T09:30:19.339Z,-3.6
2022-12-24T09:31:19.299Z,-3.65
2022-12-24T09:32:19.361Z,-3.62
2022-12-24T09:33:19.321Z,-3.55
2022-12-24T09:34:20.900Z,-3.55
2022-12-24T09:35:19.391Z,-3.52
2022-12-24T09:36:19.925Z,-3.53
2022-12-24T09:37:19.462Z,-3.5
2022-12-24T09:38:20.426Z,-3.49
2022-12-24T09:39:19.843Z,-3.41
2022-12-24T09:40:28.880Z,-3.41
2022-12-24T09:45:33.788Z,-3.39
2022-12-24T09:46:33.531Z,-3.31
2022-12-24T09:49:40.217Z,-3.33
2022-12-24T09:51:43.981Z,-3.37
2022-12-24T09:52:41.719Z,-3.33
2022-12-24T09:53:45.474Z,-3.35
2022-12-24T09:54:49.694Z,-3.28
2022-12-24T09:55:48.411Z,-3.22
2022-12-24T09:56:47.592Z,-3.28
2022-12-24T09:57:47.498Z,-3.26
2022-12-24T09:58:53.754Z,-3.27
2022-12-24T09:59:50.289Z,-3.25
2022-12-24T10:00:51.322Z,-3.26
2022-12-24T10:01:51.578Z,-3.28
2022-12-24T10:02:50.321Z,-3.24
2022-12-24T10:03:50.307Z,-3.27
2022-12-24T10:04:50.490Z,-3.23
2022-12-24T10:07:59.041Z,-3.15
2022-12-24T10:19:33.123Z,-3
2022-12-24T10:23:40.722Z,-3.09
2022-12-24T10:26:45.480Z,-3
2022-12-24T10:27:41.715Z,-2.95
2022-12-24T10:28:45.588Z,-2.98
2022-12-24T10:29:43.779Z,-3.04
2022-12-24T10:30:42.794Z,-3.04
2022-12-24T10:32:50.414Z,-3
2022-12-24T10:33:49.423Z,-2.88
2022-12-24T10:35:51.753Z,-2.92
2022-12-24T10:36:48.402Z,-3.02
2022-12-24T10:37:49.244Z,-2.9
2022-12-24T10:38:48.429Z,-2.88
2022-12-24T10:39:48.418Z,-2.95
2022-12-24T10:40:50.367Z,-3.01
2022-12-24T10:41:50.688Z,-2.97
2022-12-24T10:42:51.687Z,-2.91
2022-12-24T10:43:48.879Z,-2.92
2022-12-24T10:45:52.681Z,-2.89
2022-12-24T10:46:50.842Z,-2.9
2022-12-24T10:47:54.557Z,-2.89
2022-12-24T10:51:02.394Z,-2.82
2022-12-24T10:54:08.244Z,-2.8
2022-12-24T10:56:09.300Z,-2.8
2022-12-24T10:58:16.415Z,-2.84
2022-12-24T11:00:20.113Z,-2.81
2022-12-24T11:01:18.041Z,-2.89
2022-12-24T11:02:28.792Z,-2.77
2022-12-24T11:03:33.884Z,-2.75
2022-12-24T11:04:27.203Z,-2.84
2022-12-24T11:05:30.284Z,-2.73
2022-12-24T11:06:27.233Z,-2.77
2022-12-24T11:07:28.086Z,-2.76
2022-12-24T11:08:26.955Z,-2.68
2022-12-24T11:09:28.933Z,-2.67
2022-12-24T11:10:27.426Z,-2.69
2022-12-24T11:11:34.741Z,-2.66
2022-12-24T11:12:35.642Z,-2.66
2022-12-24T11:13:38.871Z,-2.67
2022-12-24T11:14:38.842Z,-2.68
2022-12-24T11:15:36.234Z,-2.67
2022-12-24T11:16:36.611Z,-2.64
2022-12-24T11:17:36.155Z,-2.65
2022-12-24T11:18:38.416Z,-2.73
2022-12-24T11:19:37.770Z,-2.7
2022-12-24T11:20:36.177Z,-2.67
2022-12-24T11:21:39.400Z,-2.64
2022-12-24T11:22:36.319Z,-2.67
2022-12-24T11:23:36.425Z,-2.67
2022-12-24T11:24:39.305Z,-2.64
2022-12-24T11:25:40.428Z,-2.64
2022-12-24T11:26:37.160Z,-2.61
2022-12-24T11:27:41.271Z,-2.6
2022-12-24T11:28:37.943Z,-2.67
2022-12-24T11:29:37.955Z,-2.65
2022-12-24T11:30:38.292Z,-2.62
2022-12-24T11:31:38.140Z,-2.67
2022-12-24T11:32:47.303Z,-2.72
2022-12-24T11:33:46.937Z,-2.63
2022-12-24T11:34:43.986Z,-2.62
2022-12-24T11:35:45.943Z,-2.63
2022-12-24T11:36:43.930Z,-2.59
2022-12-24T11:37:43.699Z,-2.53
2022-12-24T11:38:52.004Z,-2.58
2022-12-24T11:39:50.691Z,-2.65
2022-12-24T11:40:50.778Z,-2.58
2022-12-24T11:41:49.276Z,-2.61
2022-12-24T11:42:49.183Z,-2.58
2022-12-24T11:43:50.614Z,-2.69
2022-12-24T11:44:50.043Z,-2.71
2022-12-24T11:45:53.097Z,-2.72
2022-12-24T11:46:49.925Z,-2.59
2022-12-24T11:47:50.717Z,-2.59
2022-12-24T11:49:07.810Z,-2.62
2022-12-24T11:49:49.615Z,-2.64
2022-12-24T11:56:08.211Z,-2.67
2022-12-24T11:57:05.725Z,-2.7
2022-12-24T12:00:11.188Z,-2.79
2022-12-24T12:01:24.781Z,-2.73
2022-12-24T12:04:18.145Z,-2.83
2022-12-24T12:08:22.846Z,-2.83
2022-12-24T12:11:25.276Z,-2.83
2022-12-24T12:12:31.575Z,-2.74
2022-12-24T12:13:29.492Z,-2.81
2022-12-24T12:15:33.074Z,-2.96
2022-12-24T12:16:32.397Z,-2.92
2022-12-24T12:18:38.346Z,-2.9
2022-12-24T12:20:41.552Z,-2.89
2022-12-24T12:21:42.391Z,-2.84
2022-12-24T12:23:45.858Z,-2.88
2022-12-24T12:24:47.883Z,-2.83
2022-12-24T12:25:47.726Z,-2.86
2022-12-24T12:26:45.172Z,-2.81
2022-12-24T12:27:46.265Z,-2.83
2022-12-24T12:29:47.801Z,-2.86
2022-12-24T12:30:46.581Z,-2.93
2022-12-24T12:31:47.984Z,-2.96
2022-12-24T12:32:48.428Z,-3
2022-12-24T12:34:55.672Z,-2.95
2022-12-24T12:35:47.752Z,-2.96
2022-12-24T12:37:54.723Z,-2.97
2022-12-24T12:38:51.615Z,-2.87
2022-12-24T12:39:51.087Z,-2.91
2022-12-24T12:48:22.751Z,-2.93
2022-12-24T12:56:33.569Z,-3.07
2022-12-24T12:57:36.015Z,-3.15
2022-12-24T12:59:35.937Z,-3.11
2022-12-24T13:00:34.932Z,-3.06
2022-12-24T13:20:28.315Z,-3.4
2022-12-24T13:21:26.053Z,-3.39
2022-12-24T13:22:24.814Z,-3.36
2022-12-24T13:23:25.841Z,-3.46
2022-12-24T13:24:26.366Z,-3.58
2022-12-24T13:26:27.675Z,-3.73
2022-12-24T13:27:29.065Z,-3.64
2022-12-24T13:28:32.328Z,-3.69
2022-12-24T13:30:38.113Z,-3.56
2022-12-24T13:31:34.397Z,-3.56
2022-12-24T13:32:39.128Z,-3.54
2022-12-24T13:34:37.921Z,-3.66
2022-12-24T13:35:38.669Z,-3.56
2022-12-24T13:37:42.655Z,-3.59
2022-12-24T13:38:47.682Z,-3.61
2022-12-24T13:40:48.051Z,-3.65
2022-12-24T13:41:52.823Z,-3.6
2022-12-24T13:42:52.781Z,-3.62
2022-12-24T13:45:52.644Z,-3.52
2022-12-24T13:47:53.904Z,-3.59
2022-12-24T13:48:53.972Z,-3.6
2022-12-24T13:49:53.893Z,-3.62
2022-12-24T13:50:55.241Z,-3.67
2022-12-24T13:52:57.385Z,-3.71
2022-12-24T13:53:58.869Z,-3.66
2022-12-24T13:55:02.713Z,-3.75
2022-12-24T13:56:05.447Z,-3.75
2022-12-24T13:57:02.223Z,-3.77
2022-12-24T13:58:03.786Z,-3.75
2022-12-24T14:00:07.452Z,-3.83
2022-12-24T14:01:06.385Z,-3.84
2022-12-24T14:02:05.791Z,-3.71
2022-12-24T14:04:08.979Z,-3.81
2022-12-24T14:06:13.676Z,-3.75
2022-12-24T14:07:11.094Z,-3.79
2022-12-24T14:09:19.293Z,-3.94
2022-12-24T14:10:24.749Z,-4.12
2022-12-24T14:11:20.966Z,-4.09
2022-12-24T14:16:29.681Z,-4.36
2022-12-24T14:17:28.404Z,-4.34
2022-12-24T14:18:28.071Z,-4.4
2022-12-24T14:20:32.198Z,-3.97
2022-12-24T14:21:36.086Z,-3.98
2022-12-24T14:22:39.991Z,-4.05
2022-12-24T14:23:44.593Z,-4.05
2022-12-24T14:24:46.059Z,-3.96
2022-12-24T14:25:42.675Z,-3.83
2022-12-24T14:26:47.577Z,-3.87
2022-12-24T14:27:45.279Z,-3.86
2022-12-24T14:28:46.418Z,-3.86
2022-12-24T14:29:50.299Z,-3.87
2022-12-24T14:31:54.140Z,-3.95
2022-12-24T14:32:51.516Z,-4.13
2022-12-24T14:33:50.997Z,-4
2022-12-24T14:35:55.517Z,-4.21
2022-12-24T14:36:56.094Z,-4.06
2022-12-24T14:38:59.135Z,-4.03
2022-12-24T14:39:57.203Z,-3.94
2022-12-24T14:54:39.184Z,-3.99
2022-12-24T14:55:46.105Z,-3.95
2022-12-24T14:56:37.754Z,-3.94
2022-12-24T14:57:37.870Z,-4.03
2022-12-24T14:58:38.402Z,-4.07
2022-12-24T15:00:42.803Z,-4.38
2022-12-24T15:01:42.719Z,-4.3
2022-12-24T15:02:50.772Z,-4.46
2022-12-24T15:03:42.594Z,-4.24
2022-12-24T15:04:42.551Z,-4.24
2022-12-24T15:05:43.186Z,-4.37
2022-12-24T15:06:52.702Z,-4.63
2022-12-24T15:07:56.079Z,-4.43
2022-12-24T15:08:49.402Z,-4.34
2022-12-24T15:09:47.742Z,-4.28
2022-12-24T15:10:51.170Z,-4.35
2022-12-24T15:11:49.318Z,-4.27
2022-12-24T15:12:47.975Z,-4.25
2022-12-24T15:13:52.280Z,-4.38
2022-12-24T15:14:49.159Z,-4.23
2022-12-24T15:15:52.613Z,-4.37
2022-12-24T15:16:56.104Z,-4.44
2022-12-24T15:17:54.908Z,-4.47
2022-12-24T15:18:55.059Z,-4.27
2022-12-24T15:19:53.886Z,-4.33
2022-12-24T15:20:57.290Z,-4.24
2022-12-24T15:21:54.001Z,-4.38
2022-12-24T15:22:54.629Z,-4.26
2022-12-24T15:23:53.605Z,-4.25
2022-12-24T15:24:54.009Z,-4.31
2022-12-24T15:26:56.093Z,-4.36
2022-12-24T15:27:56.972Z,-4.36
2022-12-24T15:29:02.643Z,-4.26
2022-12-24T15:32:04.121Z,-4.27
2022-12-24T15:33:03.960Z,-4.09
2022-12-24T15:34:03.890Z,-4.17
2022-12-24T15:35:04.330Z,-4.16
2022-12-24T15:36:05.276Z,-4.32
2022-12-24T15:38:05.195Z,-4.15
2022-12-24T15:39:07.329Z,-4.2
2022-12-24T15:40:08.888Z,-4.14
2022-12-24T15:41:08.393Z,-4.34
2022-12-24T15:42:06.005Z,-4.29
2022-12-24T15:43:06.043Z,-4.17
2022-12-24T15:44:05.184Z,-4.22
2022-12-24T15:46:09.860Z,-4.29
2022-12-24T15:48:13.644Z,-4.18
2022-12-24T15:49:15.195Z,-4.18
2022-12-24T15:50:15.378Z,-4.32
2022-12-24T15:51:12.279Z,-4.17